createdAt,value
2023-05-18T00:01:48.453Z,8.80
2023-05-18T00:04:34.775Z,8.80
2023-05-18T00:07:20.510Z,8.70
2023-05-18T00:10:18.455Z,8.70
2023-05-18T00:13:05.331Z,8.70
2023-05-18T00:15:50.876Z,8.60
2023-05-18T00:18:37.567Z,8.60
2023-05-18T00:21:22.898Z,8.60
2023-05-18T00:24:12.523Z,8.60
2023-05-18T00:26:57.864Z,8.50
2023-05-18T00:29:43.483Z,8.50
2023-05-18T00:32:31.621Z,8.50
2023-05-18T00:35:16.992Z,8.50
2023-05-18T00:38:02.828Z,8.50
2023-05-18T00:40:48.077Z,8.50
2023-05-18T00:43:36.013Z,8.40
2023-05-18T00:46:23.572Z,8.40
2023-05-18T00:49:09.122Z,8.40
2023-05-18T00:51:55.365Z,8.40
2023-05-18T00:54:44.310Z,8.40
2023-05-18T00:57:30.068Z,8.40
2023-05-18T01:00:23.834Z,8.40
2023-05-18T01:03:11.079Z,8.40
2023-05-18T01:05:58.385Z,8.40
2023-05-18T01:08:44.024Z,8.30
2023-05-18T01:11:50.033Z,8.30
2023-05-18T01:14:49.925Z,8.30
2023-05-18T01:17:45.408Z,8.30
2023-05-18T01:20:57.786Z,8.20
2023-05-18T01:24:03.901Z,8.20
2023-05-18T01:26:50.900Z,8.20
2023-05-18T01:29:37.123Z,8.20
2023-05-18T01:32:22.757Z,8.20
2023-05-18T01:35:09.732Z,8.20
2023-05-18T01:37:55.596Z,8.10
2023-05-18T01:40:54.534Z,8.10
2023-05-18T01:43:53.459Z,8.10
2023-05-18T01:46:58.352Z,8.10
2023-05-18T01:50:05.399Z,8.10
2023-05-18T01:53:00.736Z,8.10
2023-05-18T01:55:48.664Z,8.10
2023-05-18T01:58:37.004Z,8.20
2023-05-18T02:01:24.126Z,8.10
2023-05-18T02:04:10.583Z,8.10
2023-05-18T02:06:56.120Z,8.10
2023-05-18T02:09:42.101Z,8.10
2023-05-18T02:12:28.059Z,8.10
2023-05-18T02:15:16.319Z,8.20
2023-05-18T02:18:03.020Z,8.20
2023-05-18T02:20:51.087Z,8.10
2023-05-18T02:23:36.598Z,8.20
2023-05-18T02:26:22.845Z,8.20
2023-05-18T02:29:12.073Z,8.20
2023-05-18T02:31:59.552Z,8.20
2023-05-18T02:34:46.475Z,8.10
2023-05-18T02:37:34.433Z,8.10
2023-05-18T02:40:20.405Z,8.10
2023-05-18T02:43:06.200Z,8.10
2023-05-18T02:45:51.998Z,8.00
2023-05-18T02:48:37.641Z,8.00
2023-05-18T02:51:23.514Z,8.00
2023-05-18T02:54:12.271Z,7.90
2023-05-18T02:57:03.234Z,7.90
2023-05-18T03:00:00.135Z,7.90
2023-05-18T03:02:48.539Z,7.90
2023-05-18T03:05:35.042Z,7.90
2023-05-18T03:08:21.153Z,7.80
2023-05-18T03:11:06.504Z,7.80
2023-05-18T03:13:52.235Z,7.80
2023-05-18T03:16:39.201Z,7.90
2023-05-18T03:19:29.434Z,7.80
2023-05-18T03:22:15.161Z,7.80
2023-05-18T03:25:02.542Z,7.80
2023-05-18T03:27:51.736Z,7.80
2023-05-18T03:30:37.515Z,7.80
2023-05-18T03:33:23.948Z,7.80
2023-05-18T03:36:09.729Z,7.80
2023-05-18T03:38:55.120Z,7.80
2023-05-18T03:41:40.277Z,7.80
2023-05-18T03:44:25.801Z,7.80
2023-05-18T03:47:11.718Z,7.80
2023-05-18T03:49:57.226Z,7.80
2023-05-18T03:52:44.693Z,7.90
2023-05-18T03:55:30.437Z,7.80
2023-05-18T03:58:16.568Z,7.90
2023-05-18T04:01:02.386Z,7.80
2023-05-18T04:03:56.525Z,7.80
2023-05-18T04:06:49.426Z,7.80
2023-05-18T04:09:36.366Z,7.90
2023-05-18T04:12:23.609Z,7.90
2023-05-18T04:15:09.804Z,7.90
2023-05-18T04:17:58.351Z,7.90
2023-05-18T04:20:46.053Z,7.90
2023-05-18T04:23:33.445Z,7.90
2023-05-18T04:26:20.165Z,8.00
2023-05-18T04:29:07.714Z,8.00
2023-05-18T04:32:05.362Z,8.00
2023-05-18T04:34:50.943Z,8.00
2023-05-18T04:37:40.328Z,8.00
2023-05-18T04:40:28.573Z,8.10
2023-05-18T04:43:14.480Z,8.10
2023-05-18T04:45:59.634Z,8.20
2023-05-18T04:48:49.940Z,8.20
2023-05-18T04:51:37.076Z,8.20
2023-05-18T04:54:26.676Z,8.20
2023-05-18T04:57:13.062Z,8.20
2023-05-18T04:59:58.761Z,8.20
2023-05-18T05:02:49.145Z,8.30
2023-05-18T05:05:41.146Z,8.30
2023-05-18T05:08:26.704Z,8.30
2023-05-18T05:11:12.236Z,8.40
2023-05-18T05:13:57.725Z,8.40
2023-05-18T05:16:43.037Z,8.40
2023-05-18T05:19:28.876Z,8.50
2023-05-18T05:22:14.689Z,8.50
2023-05-18T05:25:00.196Z,8.60
2023-05-18T05:27:45.973Z,8.60
2023-05-18T05:30:32.575Z,8.60
2023-05-18T05:33:18.382Z,8.60
2023-05-18T05:36:05.260Z,8.60
2023-05-18T05:38:51.110Z,8.70
2023-05-18T05:41:36.686Z,8.70
2023-05-18T05:44:23.299Z,8.70
2023-05-18T05:47:09.089Z,8.70
2023-05-18T05:49:55.587Z,8.70
2023-05-18T05:52:41.384Z,8.80
2023-05-18T05:55:27.869Z,8.80
2023-05-18T05:58:13.325Z,8.80
2023-05-18T06:01:01.583Z,8.90
2023-05-18T06:03:53.213Z,9.00
2023-05-18T06:06:39.585Z,9.00
2023-05-18T06:09:26.561Z,9.00
2023-05-18T06:12:13.089Z,9.10
2023-05-18T06:14:58.902Z,9.10
2023-05-18T06:17:44.513Z,9.20
2023-05-18T06:20:33.314Z,9.20
2023-05-18T06:23:23.476Z,9.30
2023-05-18T06:26:23.541Z,9.40
2023-05-18T06:29:30.662Z,9.40
2023-05-18T06:32:38.013Z,9.50
2023-05-18T06:35:26.681Z,9.60
2023-05-18T06:38:12.154Z,9.60
2023-05-18T06:40:57.543Z,9.60
2023-05-18T06:43:42.853Z,9.70
2023-05-18T06:46:41.545Z,9.80
2023-05-18T06:49:37.125Z,9.90
2023-05-18T06:52:24.411Z,10.00
2023-05-18T06:55:12.109Z,10.10
2023-05-18T06:57:58.273Z,10.30
2023-05-18T07:00:46.713Z,10.30
2023-05-18T07:03:32.632Z,10.40
2023-05-18T07:06:22.098Z,10.40
2023-05-18T07:09:08.787Z,10.50
2023-05-18T07:11:54.139Z,10.50
2023-05-18T07:14:39.129Z,10.70
2023-05-18T07:17:24.607Z,10.80
2023-05-18T07:20:10.298Z,10.80
2023-05-18T07:22:59.535Z,10.90
2023-05-18T07:25:45.103Z,11.10
2023-05-18T07:28:30.382Z,11.10
2023-05-18T07:31:16.692Z,11.20
2023-05-18T07:34:02.267Z,11.40
2023-05-18T07:36:47.764Z,11.50
2023-05-18T07:39:33.162Z,11.50
2023-05-18T07:42:18.546Z,11.60
2023-05-18T07:45:04.510Z,11.70
2023-05-18T07:47:50.266Z,11.80
2023-05-18T07:50:35.769Z,11.90
2023-05-18T07:53:21.501Z,12.10
2023-05-18T07:56:08.569Z,12.10
2023-05-18T07:58:59.332Z,12.10
2023-05-18T08:01:47.455Z,12.20
2023-05-18T08:04:33.805Z,12.30
2023-05-18T08:07:19.281Z,12.50
2023-05-18T08:10:05.345Z,12.60
2023-05-18T08:12:50.828Z,12.60
2023-05-18T08:15:37.552Z,12.60
2023-05-18T08:18:23.336Z,12.60
2023-05-18T08:21:09.801Z,12.70
2023-05-18T08:23:55.796Z,12.80
2023-05-18T08:26:41.222Z,12.80
2023-05-18T08:29:26.568Z,12.90
2023-05-18T08:32:11.884Z,12.90
2023-05-18T08:34:57.362Z,13.00
2023-05-18T08:37:43.024Z,13.10
2023-05-18T08:40:37.595Z,13.10
2023-05-18T08:43:30.073Z,13.20
2023-05-18T08:46:25.430Z,13.20
2023-05-18T08:49:11.296Z,13.20
2023-05-18T08:52:03.204Z,13.40
2023-05-18T08:54:53.991Z,13.50
2023-05-18T08:57:42.796Z,13.60
2023-05-18T09:00:28.401Z,13.70
2023-05-18T09:03:14.379Z,13.70
2023-05-18T09:06:01.605Z,13.70
2023-05-18T09:08:47.569Z,13.70
2023-05-18T09:11:34.502Z,13.90
2023-05-18T09:14:23.064Z,13.90
2023-05-18T09:17:09.761Z,14.00
2023-05-18T09:19:55.044Z,14.20
2023-05-18T09:22:41.291Z,14.30
2023-05-18T09:25:29.910Z,14.30
2023-05-18T09:28:28.243Z,14.50
2023-05-18T09:31:19.290Z,14.70
2023-05-18T09:34:06.506Z,15.00
2023-05-18T09:36:57.007Z,15.00
2023-05-18T09:39:45.939Z,14.90
2023-05-18T09:42:38.446Z,15.00
2023-05-18T09:45:25.606Z,15.10
2023-05-18T09:48:11.349Z,15.30
2023-05-18T09:50:59.188Z,15.40
2023-05-18T09:53:55.930Z,15.50
2023-05-18T09:56:43.611Z,15.60
2023-05-18T09:59:30.352Z,15.70
2023-05-18T10:02:19.390Z,15.90
2023-05-18T10:05:05.421Z,16.00
2023-05-18T10:07:54.980Z,16.00
2023-05-18T10:10:44.364Z,16.20
2023-05-18T10:13:31.857Z,16.30
2023-05-18T10:16:17.608Z,16.40
2023-05-18T10:19:06.190Z,16.40
2023-05-18T10:21:53.195Z,16.60
2023-05-18T10:24:45.556Z,16.60
2023-05-18T10:27:34.919Z,16.70
2023-05-18T10:30:23.109Z,16.90
2023-05-18T10:33:20.710Z,17.00
2023-05-18T10:36:13.964Z,17.10
2023-05-18T10:39:00.895Z,17.20
2023-05-18T10:41:48.229Z,17.40
2023-05-18T10:44:33.825Z,17.60
2023-05-18T10:47:20.433Z,17.80
2023-05-18T10:50:06.965Z,17.50
2023-05-18T10:52:53.310Z,17.30
2023-05-18T10:55:38.950Z,17.60
2023-05-18T10:58:27.799Z,17.90
2023-05-18T11:01:14.368Z,18.10
2023-05-18T11:04:06.371Z,18.20
2023-05-18T11:06:58.973Z,18.50
2023-05-18T11:09:45.833Z,18.60
2023-05-18T11:12:34.063Z,19.00
2023-05-18T11:15:19.595Z,19.30
2023-05-18T11:18:14.301Z,19.90
2023-05-18T11:21:02.703Z,20.40
2023-05-18T11:24:12.870Z,20.90
2023-05-18T11:27:12.214Z,21.50
2023-05-18T11:30:07.819Z,22.10
2023-05-18T11:33:11.319Z,22.50
2023-05-18T11:36:01.029Z,22.60
2023-05-18T11:38:56.795Z,22.80
2023-05-18T11:41:44.193Z,22.90
2023-05-18T11:44:33.914Z,22.90
2023-05-18T11:47:19.587Z,23.30
2023-05-18T11:50:08.778Z,23.60
2023-05-18T11:52:54.291Z,23.50
2023-05-18T11:55:43.128Z,23.30
2023-05-18T11:58:30.722Z,22.90
2023-05-18T12:01:16.498Z,23.00
2023-05-18T12:04:03.492Z,23.20
2023-05-18T12:06:49.228Z,23.20
2023-05-18T12:09:35.294Z,23.40
2023-05-18T12:12:20.689Z,23.60
2023-05-18T12:15:08.044Z,23.90
2023-05-18T12:17:53.866Z,24.10
2023-05-18T12:20:41.008Z,24.30
2023-05-18T12:23:39.659Z,24.40
2023-05-18T12:26:26.015Z,24.70
2023-05-18T12:29:12.461Z,24.80
2023-05-18T12:31:58.343Z,25.20
2023-05-18T12:34:46.966Z,25.70
2023-05-18T12:37:44.173Z,26.20
2023-05-18T12:40:44.473Z,26.70
2023-05-18T12:43:34.927Z,27.30
2023-05-18T12:46:23.171Z,27.40
2023-05-18T12:49:09.257Z,27.70
2023-05-18T12:51:56.034Z,28.40
2023-05-18T12:54:55.823Z,28.90
2023-05-18T12:57:43.227Z,29.50
2023-05-18T13:00:33.217Z,29.90
2023-05-18T13:03:22.023Z,30.40
2023-05-18T13:06:10.355Z,30.90
2023-05-18T13:08:56.080Z,31.50
2023-05-18T13:11:47.150Z,31.80
2023-05-18T13:14:38.548Z,31.60
2023-05-18T13:17:24.370Z,31.20
2023-05-18T13:20:15.111Z,31.20
2023-05-18T13:23:06.352Z,31.80
2023-05-18T13:25:51.805Z,32.50
2023-05-18T13:28:37.202Z,33.30
2023-05-18T13:31:23.133Z,33.80
2023-05-18T13:34:08.507Z,33.80
2023-05-18T13:36:54.045Z,33.80
2023-05-18T13:39:39.724Z,34.00
2023-05-18T13:42:28.167Z,33.70
2023-05-18T13:45:16.152Z,33.70
2023-05-18T13:48:03.713Z,33.60
2023-05-18T13:50:49.086Z,34.00
2023-05-18T13:53:34.552Z,33.60
2023-05-18T13:56:20.318Z,33.50
2023-05-18T13:59:08.817Z,33.40
2023-05-18T14:01:54.878Z,33.10
2023-05-18T14:04:41.135Z,32.70
2023-05-18T14:07:27.251Z,32.10
2023-05-18T14:10:13.356Z,31.70
2023-05-18T14:12:58.949Z,31.10
2023-05-18T14:15:44.339Z,30.60
2023-05-18T14:18:32.869Z,30.00
2023-05-18T14:21:18.076Z,29.20
2023-05-18T14:24:07.394Z,28.80
2023-05-18T14:26:53.559Z,28.90
2023-05-18T14:29:38.833Z,29.00
2023-05-18T14:32:24.565Z,29.30
2023-05-18T14:35:10.422Z,29.50
2023-05-18T14:37:55.871Z,29.70
2023-05-18T14:40:41.381Z,29.80
2023-05-18T14:43:27.146Z,29.60
2023-05-18T14:46:21.694Z,29.40
2023-05-18T14:49:07.341Z,29.50
2023-05-18T14:51:52.736Z,29.70
2023-05-18T14:54:38.233Z,29.90
2023-05-18T14:57:25.937Z,30.00
2023-05-18T15:00:12.809Z,29.90
2023-05-18T15:02:58.272Z,29.50
2023-05-18T15:05:45.548Z,29.80
2023-05-18T15:08:31.314Z,30.10
2023-05-18T15:11:16.952Z,30.10
2023-05-18T15:14:02.341Z,31.00
2023-05-18T15:16:47.880Z,31.70
2023-05-18T15:19:33.331Z,31.80
2023-05-18T15:22:18.873Z,31.50
2023-05-18T15:25:06.979Z,31.30
2023-05-18T15:27:53.644Z,31.10
2023-05-18T15:30:38.802Z,31.00
2023-05-18T15:33:24.531Z,30.50
2023-05-18T15:36:10.028Z,30.40
2023-05-18T15:38:55.501Z,30.50
2023-05-18T15:41:40.768Z,30.80
2023-05-18T15:44:27.555Z,30.80
2023-05-18T15:47:14.821Z,30.60
2023-05-18T15:50:02.780Z,30.40
2023-05-18T15:52:48.083Z,30.30
2023-05-18T15:55:33.403Z,30.40
2023-05-18T15:58:18.968Z,30.10
2023-05-18T16:01:04.522Z,29.50
2023-05-18T16:03:50.140Z,29.20
2023-05-18T16:06:36.123Z,29.40
2023-05-18T16:09:23.684Z,30.00
2023-05-18T16:12:09.208Z,30.50
2023-05-18T16:14:55.170Z,30.80
2023-05-18T16:17:40.412Z,30.80
2023-05-18T16:20:26.095Z,30.70
2023-05-18T16:23:11.354Z,30.80
2023-05-18T16:25:59.354Z,30.80
2023-05-18T16:28:44.742Z,30.50
2023-05-18T16:31:30.665Z,30.80
2023-05-18T16:34:19.059Z,31.00
2023-05-18T16:37:04.959Z,31.00
2023-05-18T16:39:50.069Z,31.00
2023-05-18T16:42:35.602Z,30.50
2023-05-18T16:45:21.609Z,30.00
2023-05-18T16:48:06.971Z,30.00
2023-05-18T16:50:52.564Z,30.40
2023-05-18T16:53:37.906Z,30.50
2023-05-18T16:56:23.564Z,30.70
2023-05-18T16:59:09.399Z,30.60
2023-05-18T17:01:54.623Z,30.50
2023-05-18T17:04:46.026Z,30.40
2023-05-18T17:07:31.597Z,30.80
2023-05-18T17:10:22.374Z,31.10
2023-05-18T17:13:08.332Z,31.10
2023-05-18T17:15:54.308Z,31.10
2023-05-18T17:18:39.717Z,31.60
2023-05-18T17:21:26.686Z,31.50
2023-05-18T17:24:12.669Z,31.30
2023-05-18T17:27:12.506Z,31.00
2023-05-18T17:29:58.466Z,31.00
2023-05-18T17:32:45.424Z,30.80
2023-05-18T17:35:30.993Z,30.30
2023-05-18T17:38:17.174Z,29.60
2023-05-18T17:41:03.504Z,28.50
2023-05-18T17:43:48.814Z,27.50
2023-05-18T17:46:37.384Z,26.40
2023-05-18T17:49:25.567Z,25.60
2023-05-18T17:52:10.690Z,24.80
2023-05-18T17:54:57.195Z,24.10
2023-05-18T17:57:45.273Z,23.40
2023-05-18T18:00:31.324Z,23.10
2023-05-18T18:03:19.955Z,22.70
2023-05-18T18:06:08.608Z,22.30
2023-05-18T18:08:57.697Z,21.90
2023-05-18T18:11:43.046Z,21.60
2023-05-18T18:14:28.553Z,21.60
2023-05-18T18:17:14.063Z,21.50
2023-05-18T18:20:05.853Z,21.50
2023-05-18T18:22:54.048Z,21.70
2023-05-18T18:25:39.689Z,22.10
2023-05-18T18:28:25.550Z,22.60
2023-05-18T18:31:11.248Z,23.00
2023-05-18T18:33:57.038Z,23.20
2023-05-18T18:36:48.508Z,23.40
2023-05-18T18:39:35.956Z,23.30
2023-05-18T18:42:21.770Z,23.20
2023-05-18T18:45:07.903Z,23.20
2023-05-18T18:47:53.289Z,23.00
2023-05-18T18:50:38.726Z,22.90
2023-05-18T18:53:24.073Z,22.70
2023-05-18T18:56:10.457Z,22.40
2023-05-18T18:58:56.068Z,22.00
2023-05-18T19:01:41.665Z,21.70
2023-05-18T19:04:27.353Z,21.10
2023-05-18T19:07:12.688Z,20.70
2023-05-18T19:09:58.141Z,20.30
2023-05-18T19:12:43.773Z,19.70
2023-05-18T19:15:29.427Z,19.20
2023-05-18T19:18:15.017Z,18.80
2023-05-18T19:21:03.628Z,18.50
2023-05-18T19:23:49.046Z,18.10
2023-05-18T19:26:34.778Z,17.90
2023-05-18T19:29:21.512Z,17.60
2023-05-18T19:32:07.000Z,17.30
2023-05-18T19:34:52.581Z,17.10
2023-05-18T19:37:38.005Z,16.90
2023-05-18T19:40:27.219Z,16.70
2023-05-18T19:43:12.580Z,16.60
2023-05-18T19:45:57.886Z,16.40
2023-05-18T19:48:43.337Z,16.20
2023-05-18T19:51:29.240Z,16.10
2023-05-18T19:54:14.695Z,16.00
2023-05-18T19:57:01.684Z,15.80
2023-05-18T19:59:47.414Z,15.60
2023-05-18T20:02:34.423Z,15.50
2023-05-18T20:05:20.051Z,15.40
2023-05-18T20:08:07.434Z,15.30
2023-05-18T20:10:54.063Z,15.20
2023-05-18T20:13:39.712Z,15.10
2023-05-18T20:16:26.505Z,15.10
2023-05-18T20:19:15.097Z,14.90
2023-05-18T20:22:00.889Z,14.80
2023-05-18T20:24:46.600Z,14.70
2023-05-18T20:27:32.254Z,14.70
2023-05-18T20:30:17.708Z,14.60
2023-05-18T20:33:05.831Z,14.50
2023-05-18T20:35:53.233Z,14.40
2023-05-18T20:38:41.680Z,14.30
2023-05-18T20:41:28.377Z,14.30
2023-05-18T20:44:17.790Z,14.20
2023-05-18T20:47:03.898Z,14.20
2023-05-18T20:49:49.394Z,14.10
2023-05-18T20:52:34.992Z,14.00
2023-05-18T20:55:23.992Z,14.00
2023-05-18T20:58:13.429Z,13.90
2023-05-18T21:00:58.630Z,13.80
2023-05-18T21:03:45.461Z,13.80
2023-05-18T21:06:32.014Z,13.70
2023-05-18T21:09:20.736Z,13.60
2023-05-18T21:12:09.770Z,13.50
2023-05-18T21:14:55.318Z,13.40
2023-05-18T21:17:40.675Z,13.30
2023-05-18T21:20:26.360Z,13.30
2023-05-18T21:23:11.916Z,13.20
2023-05-18T21:25:57.627Z,13.10
2023-05-18T21:28:43.220Z,13.10
2023-05-18T21:31:34.533Z,13.00
2023-05-18T21:34:19.776Z,13.00
2023-05-18T21:37:05.329Z,13.00
2023-05-18T21:39:51.116Z,12.90
2023-05-18T21:42:38.188Z,12.90
2023-05-18T21:45:24.952Z,12.80
2023-05-18T21:48:10.545Z,12.80
2023-05-18T21:50:59.233Z,12.70
2023-05-18T21:53:44.857Z,12.70
2023-05-18T21:56:30.979Z,12.60
2023-05-18T21:59:17.235Z,12.50
2023-05-18T22:02:02.748Z,12.50
2023-05-18T22:04:49.340Z,12.40
2023-05-18T22:07:34.897Z,12.40
2023-05-18T22:10:24.220Z,12.30
2023-05-18T22:13:09.543Z,12.30
2023-05-18T22:15:55.048Z,12.30
2023-05-18T22:18:40.714Z,12.20
2023-05-18T22:21:26.940Z,12.20
2023-05-18T22:24:12.384Z,12.10
2023-05-18T22:27:01.167Z,12.10
2023-05-18T22:29:49.933Z,12.00
2023-05-18T22:32:35.743Z,12.00
2023-05-18T22:35:21.554Z,11.90
2023-05-18T22:38:06.976Z,11.90
2023-05-18T22:40:54.159Z,11.90
2023-05-18T22:43:39.682Z,11.80
2023-05-18T22:46:25.058Z,11.80
2023-05-18T22:49:10.624Z,11.80
2023-05-18T22:51:59.195Z,11.70
2023-05-18T22:54:44.601Z,11.70
2023-05-18T22:57:30.314Z,11.70
2023-05-18T23:00:15.643Z,11.60
2023-05-18T23:03:01.421Z,11.60
2023-05-18T23:05:48.386Z,11.60
2023-05-18T23:08:36.959Z,11.60
2023-05-18T23:11:22.320Z,11.50
2023-05-18T23:14:10.059Z,11.50
2023-05-18T23:16:58.233Z,11.40
2023-05-18T23:19:43.858Z,11.40
2023-05-18T23:22:29.308Z,11.40
2023-05-18T23:25:17.021Z,11.30
2023-05-18T23:28:02.574Z,11.30
2023-05-18T23:30:47.997Z,11.30
2023-05-18T23:33:33.565Z,11.20
2023-05-18T23:36:20.826Z,11.20
2023-05-18T23:39:07.153Z,11.20
2023-05-18T23:41:58.348Z,11.10
2023-05-18T23:44:46.526Z,11.10
2023-05-18T23:47:31.898Z,11.00
2023-05-18T23:50:17.870Z,11.00
2023-05-18T23:53:04.898Z,11.00
2023-05-18T23:55:51.748Z,10.90
2023-05-18T23:58:39.732Z,10.90
